Hauptseite
METAR-TAF:

METAR-TAF

Flughäfen :

Flugplatz Oberpfaffenhofen

Oberpfaffenhofen, Deutschland

Breite: 48-05N, Länge: 011-17E, Höhe: 600 m

Beobachtung

Neuester Wetterbericht von vor 1 Stunde und 30 Minuten, um 17:50 UTC
Wind 3 kt aus Südost
Temperatur 19°C
Luftfeuchtigkeit 78%
Luftdruck 1022 hPa
Sichtweite 10 km oder mehr
keine Wolken unter 1500 m und keine Kumulonimbus oder Gewitterwolken

METAR: EDMO 191750Z 13003KT CAVOK 19/15 Q1022

Zeit: 21:20 (19:20 UTC)

Prognose

Neuester Wetterbericht von vor 2 Stunden und 20 Minuten, um 17:00 UTC
Gültige Prognose vom 19 um 18 UTC bis 20 um 03 UTC
Wind 3 kt aus Südost
Sichtweite 10 km oder mehr
keine Wolken unter 1500 m und keine Kumulonimbus oder Gewitterwolken
Übergehend zu
vom 20 um 01 UTC bis 20 um 03 UTC
Sichtweite: 0300 m
in der Höhe von 100 ft
Nebel

TAF: EDMO 191700Z 1918/2003 13003KT CAVOK BECMG 2001/2003 0300 FG VV001

Wetterbeobachtungen und Prognosen von mehr als 4000 Flughäfen (METAR und TAF Bericht).

Die verfügbaren Stationen werden durch gelbe und rote Markierungen auf der Karte dargestellt.

Führen Sie die Maus auf sie, um den Namen der Station zu sehen.

Darauf klicken, um die Beobachtung von Wetterbeobachtungen und Prognosen zu sehen.

Um die Karte zu ändern : klicken Sie auf den grünen Tasten mit einem schwarzen Kreuz Zum Vergrößern, auf den grünen Button mit einem Gedankenstrich zu verkleinern, oder auf die grünen Pfeile für benachbarte Karten.


METAR-TAF: